Flight Track Log - Related Links

Times and Time Zones

All times are in EDT time to prevent confusion due to time zone crossing. See the BJS542 flight status page for this flight to view local times or setup timezone preferences in your user account.

Time Position Orientation Groundspeed Altitude Reporting Facility
EDT Latitude Longitude Course Direction KTS MPH feet Rate Location/Type
Thu 09:36:29 PM 45.3833 -73.8167 223° Southwest 250 288 8,000  Level Montreal Center
Thu 09:37:29 PM 45.3833 -73.9167 270° West 290 334 12,700 4,650 Climbing Montreal Center
Thu 09:38:29 PM 45.3833 -74.0667 270° West 320 368 17,300 4,300 Climbing Montreal Center
Thu 09:39:29 PM 45.4000 -74.1833 282° West 330 380 21,300 3,600 Climbing Montreal Center
Thu 09:40:00 PM 45.2581 -74.5078 249° West  Level Estimated
Thu 09:40:29 PM 45.4000 -74.3167 270° West 340 391 24,500  Level Montreal Center
Thu 09:41:29 PM 45.4000 -74.4667 270° West 350 403 27,700 2,750 Climbing Montreal Center
Thu 09:42:29 PM 45.3833 -74.5833 259° West 360 414 30,000 2,200 Climbing Montreal Center
Thu 09:43:29 PM 45.3500 -74.7500 254° West 370 426 32,100 2,250 Climbing Montreal Center
Thu 09:44:29 PM 45.3167 -74.9000 253° West 380 437 34,500 2,300 Climbing Montreal Center
Thu 09:45:29 PM 45.3000 -75.0333 260° West 380 437 36,700 1,950 Climbing Montreal Center
Thu 09:46:29 PM 45.2667 -75.1833 253° West 380 437 38,400 1,400 Climbing Montreal Center
Thu 09:47:29 PM 45.2500 -75.3333 261° West 380 437 39,500 950 Climbing Montreal Center
Thu 09:48:29 PM 45.2167 -75.4667 251° West 390 449 40,300 900 Climbing Montreal Center
Thu 09:49:29 PM 45.1833 -75.6333 254° West 410 472 41,300 1,100 Climbing Montreal Center
Thu 09:50:29 PM 45.1667 -75.7833 261° West 410 472 42,500 850 Climbing Montreal Center
Thu 09:51:29 PM 45.1333 -75.9500 254° West 400 460 43,000 250 Climbing Montreal Center
Thu 09:52:29 PM 45.1000 -76.1167 254° West 400 460 43,000  Level Montreal Center
Thu 09:53:29 PM 45.0667 -76.2500 251° West 410 472 43,000  Level Montreal Center
Thu 09:54:29 PM 45.0167 -76.4000 245° Southwest 420 483 43,000  Level Montreal Center
Thu 09:55:29 PM 44.9667 -76.5333 242° Southwest 420 483 43,000  Level Montreal Center
Thu 09:56:29 PM 44.9000 -76.7000 241° Southwest 420 483 43,000  Level Montreal Center
Thu 09:57:29 PM 44.8500 -76.8500 245° Southwest 420 483 43,000  Level Montreal Center
Thu 09:58:29 PM 44.7833 -76.9833 235° Southwest 420 483 43,000 -300 Level Montreal Center
Thu 09:59:29 PM 44.7333 -77.1167 242° Southwest 420 483 42,400 -1,500 Descending Montreal Center
Thu 10:00:29 PM 44.6833 -77.2667 245° Southwest 410 472 40,000 -2,400 Descending Montreal Center
Thu 10:01:29 PM 44.6333 -77.4000 242° Southwest 400 460 37,600 -2,400 Descending Montreal Center
Thu 10:02:29 PM 44.5667 -77.5500 238° Southwest 390 449 35,200 -2,300 Descending Montreal Center
Thu 10:03:29 PM 44.5167 -77.6500 235° Southwest 390 449 33,000 -2,300 Descending Montreal Center
Thu 10:04:29 PM 44.4500 -77.8000 238° Southwest 410 472 30,600 -2,650 Descending Montreal Center
Thu 10:05:29 PM 44.4000 -77.9333 242° Southwest 420 483 27,700 -2,600 Descending Montreal Center
Thu 10:06:29 PM 44.3333 -78.0667 235° Southwest 400 460 25,400 -2,400 Descending Montreal Center
Thu 10:07:29 PM 44.2833 -78.2167 245° Southwest 390 449 22,900 -2,350 Descending Montreal Center
Thu 10:08:29 PM 44.2333 -78.3500 242° Southwest 390 449 20,700 -2,200 Descending Montreal Center
Thu 10:09:29 PM 44.1667 -78.4667 231° Southwest 380 437 18,500 -2,200 Descending Montreal Center
Thu 10:10:29 PM 44.1167 -78.6000 242° Southwest 380 437 16,300 -2,100 Descending Montreal Center
Thu 10:11:29 PM 44.0833 -78.7167 248° West 350 403 14,300 -1,950 Descending Montreal Center
Thu 10:12:29 PM 44.0333 -78.8000 230° Southwest 310 357 12,400 -1,800 Descending Montreal Center
Thu 10:13:29 PM 43.9833 -78.9000 235° Southwest 290 334 10,700 -1,576 Descending Montreal Center
Thu 10:14:27 PM 43.9333 -78.9333 206° Southwest 270 311 9,300 -1,475 Descending Toronto Center
Thu 10:15:27 PM 43.8833 -79.0000 224° Southwest 260 299 7,800 -1,600 Descending Toronto Center
Thu 10:16:27 PM 43.8500 -79.1000 245° Southwest 250 288 6,100 -1,800 Descending Toronto Center
Thu 10:17:27 PM 43.8333 -79.1667 251° West 250 288 4,200 -1,050 Descending Toronto Center
Thu 10:18:27 PM 43.8167 -79.2667 257° West 230 265 4,000 -100 Descending Toronto Center
Thu 10:19:27 PM 43.8000 -79.3500 255° West 230 265 4,000 -400 Level Toronto Center
Thu 10:20:27 PM 43.7667 -79.4333 241° Southwest 220 253 3,200 -800 Descending Toronto Center
Thu 10:21:27 PM 43.7333 -79.5000 235° Southwest 210 242 2,400 -800 Descending Toronto Center
Thu 10:22:27 PM 43.7000 -79.5167 200° South 160 184 1,600 -750 Descending Toronto Center
Thu 10:23:27 PM 43.6833 -79.5667 245° Southwest 130 150 900 -700 Descending Toronto Center

Login

Don't have an account? Register now (free) for customized features, flight alerts, and more!